createdAt,value
2023-03-12T00:01:19.291Z,100.00
2023-03-12T00:03:45.967Z,100.00
2023-03-12T00:06:12.525Z,100.00
2023-03-12T00:08:39.412Z,100.00
2023-03-12T00:11:07.637Z,100.00
2023-03-12T00:13:34.208Z,100.00
2023-03-12T00:16:08.512Z,100.00
2023-03-12T00:18:35.055Z,100.00
2023-03-12T00:21:01.865Z,100.00
2023-03-12T00:23:28.509Z,100.00
2023-03-12T00:25:54.998Z,100.00
2023-03-12T00:28:21.482Z,100.00
2023-03-12T00:30:47.929Z,100.00
2023-03-12T00:33:14.437Z,100.00
2023-03-12T00:35:40.937Z,100.00
2023-03-12T00:38:07.433Z,100.00
2023-03-12T00:40:34.084Z,100.00
2023-03-12T00:43:00.643Z,100.00
2023-03-12T00:45:27.148Z,100.00
2023-03-12T00:47:53.688Z,100.00
2023-03-12T00:50:20.157Z,100.00
2023-03-12T00:52:46.615Z,100.00
2023-03-12T00:55:13.177Z,100.00
2023-03-12T00:57:39.650Z,100.00
2023-03-12T01:00:12.482Z,100.00
2023-03-12T01:02:39.131Z,100.00
2023-03-12T01:05:06.588Z,100.00
2023-03-12T01:07:33.045Z,100.00
2023-03-12T01:09:59.501Z,100.00
2023-03-12T01:12:25.957Z,100.00
2023-03-12T01:14:52.712Z,100.00
2023-03-12T01:17:19.178Z,100.00
2023-03-12T01:19:45.705Z,100.00
2023-03-12T01:22:12.178Z,100.00
2023-03-12T01:24:38.649Z,100.00
2023-03-12T01:27:05.113Z,100.00
2023-03-12T01:29:31.844Z,100.00
2023-03-12T01:31:58.400Z,100.00
2023-03-12T01:34:24.917Z,100.00
2023-03-12T01:36:51.425Z,100.00
2023-03-12T01:39:17.878Z,100.00
2023-03-12T01:41:44.362Z,100.00
2023-03-12T01:44:13.838Z,100.00
2023-03-12T01:46:43.198Z,100.00
2023-03-12T01:49:17.595Z,100.00
2023-03-12T01:51:56.884Z,100.00
2023-03-12T01:54:43.112Z,100.00
2023-03-12T01:57:15.681Z,100.00
2023-03-12T01:59:46.947Z,100.00
2023-03-12T02:02:14.740Z,100.00
2023-03-12T02:04:41.215Z,100.00
2023-03-12T02:07:11.961Z,100.00
2023-03-12T02:09:43.245Z,100.00
2023-03-12T02:12:09.872Z,100.00
2023-03-12T02:14:36.517Z,100.00
2023-03-12T02:17:03.211Z,100.00
2023-03-12T02:19:48.696Z,100.00
2023-03-12T02:22:15.279Z,100.00
2023-03-12T02:25:03.868Z,100.00
2023-03-12T02:27:32.419Z,100.00
2023-03-12T02:29:58.920Z,100.00
2023-03-12T02:32:27.216Z,100.00
2023-03-12T02:34:53.698Z,100.00
2023-03-12T02:37:20.248Z,100.00
2023-03-12T02:39:50.174Z,100.00
2023-03-12T02:42:16.626Z,100.00
2023-03-12T02:44:43.811Z,100.00
2023-03-12T02:47:10.305Z,100.00
2023-03-12T02:49:36.797Z,100.00
2023-03-12T02:52:03.416Z,100.00
2023-03-12T02:54:30.003Z,100.00
2023-03-12T02:56:56.585Z,100.00
2023-03-12T02:59:25.943Z,100.00
2023-03-12T03:01:56.703Z,100.00
2023-03-12T03:04:23.364Z,100.00
2023-03-12T03:06:49.843Z,100.00
2023-03-12T03:09:16.337Z,100.00
2023-03-12T03:11:42.838Z,100.00
2023-03-12T03:14:10.146Z,100.00
2023-03-12T03:16:36.628Z,100.00
2023-03-12T03:19:03.196Z,100.00
2023-03-12T03:21:29.665Z,100.00
2023-03-12T03:23:56.151Z,100.00
2023-03-12T03:26:22.908Z,100.00
2023-03-12T03:28:49.640Z,100.00
2023-03-12T03:31:16.202Z,100.00
2023-03-12T03:33:42.930Z,100.00
2023-03-12T03:36:09.722Z,100.00
2023-03-12T03:38:36.194Z,100.00
2023-03-12T03:41:02.780Z,100.00
2023-03-12T03:43:29.283Z,100.00
2023-03-12T03:45:59.340Z,100.00
2023-03-12T03:48:25.693Z,100.00
2023-03-12T03:50:52.252Z,100.00
2023-03-12T03:53:21.709Z,100.00
2023-03-12T03:55:48.483Z,100.00
2023-03-12T03:58:15.051Z,100.00
2023-03-12T04:00:41.537Z,100.00
2023-03-12T04:03:08.082Z,100.00
2023-03-12T04:05:34.732Z,100.00
2023-03-12T04:08:03.159Z,100.00
2023-03-12T04:10:29.948Z,100.00
2023-03-12T04:12:56.442Z,100.00
2023-03-12T04:15:22.942Z,100.00
2023-03-12T04:17:49.443Z,100.00
2023-03-12T04:20:16.026Z,100.00
2023-03-12T04:22:42.535Z,100.00
2023-03-12T04:25:09.214Z,100.00
2023-03-12T04:27:35.719Z,100.00
2023-03-12T04:30:02.235Z,100.00
2023-03-12T04:32:28.729Z,100.00
2023-03-12T04:34:55.299Z,100.00
2023-03-12T04:37:21.812Z,100.00
2023-03-12T04:39:48.284Z,100.00
2023-03-12T04:42:14.761Z,100.00
2023-03-12T04:44:41.587Z,100.00
2023-03-12T04:47:08.084Z,100.00
2023-03-12T04:49:34.553Z,100.00
2023-03-12T04:52:01.019Z,100.00
2023-03-12T04:54:28.098Z,100.00
2023-03-12T04:56:54.561Z,100.00
2023-03-12T04:59:21.045Z,100.00
2023-03-12T05:01:47.744Z,100.00
2023-03-12T05:04:14.382Z,100.00
2023-03-12T05:06:41.019Z,100.00
2023-03-12T05:09:07.667Z,100.00
2023-03-12T05:11:34.136Z,100.00
2023-03-12T05:14:00.607Z,100.00
2023-03-12T05:16:27.824Z,100.00
2023-03-12T05:18:54.417Z,100.00
2023-03-12T05:21:21.154Z,100.00
2023-03-12T05:23:47.878Z,100.00
2023-03-12T05:26:27.966Z,100.00
2023-03-12T05:28:54.298Z,100.00
2023-03-12T05:31:20.903Z,100.00
2023-03-12T05:33:47.437Z,100.00
2023-03-12T05:36:14.021Z,100.00
2023-03-12T05:38:40.567Z,100.00
2023-03-12T05:41:07.039Z,100.00
2023-03-12T05:43:34.262Z,100.00
2023-03-12T05:46:04.056Z,100.00
2023-03-12T05:48:30.993Z,100.00
2023-03-12T05:50:57.617Z,100.00
2023-03-12T05:53:24.392Z,100.00
2023-03-12T05:55:50.868Z,100.00
2023-03-12T05:58:17.405Z,100.00
2023-03-12T06:00:44.347Z,100.00
2023-03-12T06:03:11.019Z,100.00
2023-03-12T06:05:37.650Z,100.00
2023-03-12T06:08:04.600Z,100.00
2023-03-12T06:10:31.414Z,100.00
2023-03-12T06:12:58.013Z,100.00
2023-03-12T06:15:24.507Z,100.00
2023-03-12T06:17:50.978Z,100.00
2023-03-12T06:20:17.573Z,100.00
2023-03-12T06:22:44.028Z,100.00
2023-03-12T06:25:10.501Z,100.00
2023-03-12T06:27:37.220Z,100.00
2023-03-12T06:30:04.683Z,100.00
2023-03-12T06:32:31.236Z,100.00
2023-03-12T06:35:00.553Z,100.00
2023-03-12T06:37:27.818Z,100.00
2023-03-12T06:39:54.359Z,100.00
2023-03-12T06:42:22.467Z,100.00
2023-03-12T06:44:49.939Z,100.00
2023-03-12T06:47:17.691Z,100.00
2023-03-12T06:49:44.345Z,100.00
2023-03-12T06:52:10.826Z,99.95
2023-03-12T06:54:37.288Z,99.24
2023-03-12T06:57:04.614Z,99.56
2023-03-12T06:59:31.074Z,99.34
2023-03-12T07:01:57.569Z,99.63
2023-03-12T07:04:24.057Z,99.35
2023-03-12T07:06:51.308Z,99.35
2023-03-12T07:09:18.534Z,99.31
2023-03-12T07:11:45.282Z,98.27
2023-03-12T07:14:11.841Z,98.03
2023-03-12T07:16:38.314Z,97.27
2023-03-12T07:19:05.108Z,97.18
2023-03-12T07:21:31.685Z,96.36
2023-03-12T07:23:58.268Z,96.19
2023-03-12T07:26:24.758Z,95.89
2023-03-12T07:28:51.213Z,96.02
2023-03-12T07:31:17.727Z,96.33
2023-03-12T07:33:44.428Z,95.72
2023-03-12T07:36:11.149Z,95.87
2023-03-12T07:38:37.654Z,95.28
2023-03-12T07:41:04.193Z,95.47
2023-03-12T07:43:30.719Z,95.60
2023-03-12T07:45:57.282Z,95.35
2023-03-12T07:48:25.103Z,95.48
2023-03-12T07:50:52.253Z,95.62
2023-03-12T07:53:18.782Z,95.32
2023-03-12T07:55:46.303Z,95.87
2023-03-12T07:58:13.429Z,94.66
2023-03-12T08:00:40.030Z,96.62
2023-03-12T08:03:06.652Z,95.55
2023-03-12T08:05:33.281Z,95.88
2023-03-12T08:07:59.758Z,95.11
2023-03-12T08:10:26.291Z,94.81
2023-03-12T08:12:52.899Z,93.94
2023-03-12T08:15:20.227Z,93.92
2023-03-12T08:17:46.720Z,93.97
2023-03-12T08:20:13.529Z,94.12
2023-03-12T08:22:40.084Z,94.49
2023-03-12T08:25:06.923Z,95.37
2023-03-12T08:27:33.961Z,95.27
2023-03-12T08:30:00.478Z,94.87
2023-03-12T08:32:27.105Z,94.28
2023-03-12T08:34:53.630Z,94.04
2023-03-12T08:37:20.141Z,93.07
2023-03-12T08:39:47.359Z,91.83
2023-03-12T08:42:13.834Z,91.91
2023-03-12T08:44:40.316Z,91.99
2023-03-12T08:47:06.806Z,91.11
2023-03-12T08:49:33.278Z,90.78
2023-03-12T08:51:59.778Z,91.06
2023-03-12T08:54:26.235Z,91.02
2023-03-12T08:56:52.726Z,91.06
2023-03-12T08:59:20.614Z,91.09
2023-03-12T09:01:47.116Z,90.55
2023-03-12T09:04:13.622Z,91.33
2023-03-12T09:06:41.088Z,91.56
2023-03-12T09:09:09.040Z,91.41
2023-03-12T09:11:36.225Z,91.78
2023-03-12T09:16:49.689Z,92.70
2023-03-12T09:19:16.262Z,93.65
2023-03-12T09:21:42.774Z,96.03
2023-03-12T09:24:10.048Z,96.85
2023-03-12T09:26:36.521Z,97.70
2023-03-12T09:29:03.011Z,98.66
2023-03-12T09:31:29.518Z,99.58
2023-03-12T09:33:56.053Z,100.00
2023-03-12T09:36:22.528Z,100.00
2023-03-12T09:38:49.000Z,100.00
2023-03-12T09:41:20.693Z,100.00
2023-03-12T09:43:57.497Z,100.00
2023-03-12T09:46:26.753Z,100.00
2023-03-12T09:48:53.388Z,100.00
2023-03-12T09:51:28.835Z,100.00
2023-03-12T09:53:57.146Z,100.00
2023-03-12T09:56:23.756Z,100.00
2023-03-12T09:58:51.538Z,100.00
2023-03-12T10:01:30.016Z,100.00
2023-03-12T10:04:05.341Z,100.00
2023-03-12T10:06:38.927Z,100.00
2023-03-12T10:09:14.565Z,100.00
2023-03-12T10:11:59.829Z,100.00
2023-03-12T10:14:43.410Z,100.00
2023-03-12T10:17:31.876Z,100.00
2023-03-12T10:20:21.286Z,100.00
2023-03-12T10:23:05.551Z,100.00
2023-03-12T10:25:54.434Z,100.00
2023-03-12T10:28:34.111Z,100.00
2023-03-12T10:31:06.454Z,100.00
2023-03-12T10:33:43.250Z,100.00
2023-03-12T10:36:21.061Z,100.00
2023-03-12T10:38:49.360Z,100.00
2023-03-12T10:41:18.284Z,100.00
2023-03-12T10:43:44.828Z,100.00
2023-03-12T10:46:14.251Z,100.00
2023-03-12T10:48:41.098Z,100.00
2023-03-12T10:51:09.280Z,100.00
2023-03-12T10:53:44.893Z,100.00
2023-03-12T10:56:12.987Z,100.00
2023-03-12T10:58:41.617Z,100.00
2023-03-12T11:01:23.298Z,100.00
2023-03-12T11:03:51.188Z,100.00
2023-03-12T11:06:25.606Z,100.00
2023-03-12T11:09:18.182Z,100.00
2023-03-12T11:11:48.438Z,100.00
2023-03-12T11:14:25.832Z,100.00
2023-03-12T11:16:52.778Z,100.00
2023-03-12T11:19:34.423Z,100.00
2023-03-12T11:22:08.105Z,100.00
2023-03-12T11:24:34.737Z,100.00
2023-03-12T11:27:25.461Z,100.00
2023-03-12T11:29:52.010Z,100.00
2023-03-12T11:32:38.739Z,100.00
2023-03-12T11:35:10.202Z,100.00
2023-03-12T11:37:52.861Z,100.00
2023-03-12T11:40:35.583Z,100.00
2023-03-12T11:43:43.874Z,100.00
2023-03-12T11:46:30.740Z,100.00
2023-03-12T11:49:21.698Z,100.00
2023-03-12T11:51:57.224Z,100.00
2023-03-12T11:54:53.417Z,100.00
2023-03-12T11:57:28.635Z,100.00
2023-03-12T12:00:21.310Z,100.00
2023-03-12T12:03:20.344Z,100.00
2023-03-12T12:06:27.450Z,100.00
2023-03-12T12:08:57.227Z,100.00
2023-03-12T12:11:46.946Z,100.00
2023-03-12T12:14:31.635Z,100.00
2023-03-12T12:17:19.409Z,100.00
2023-03-12T12:19:54.948Z,100.00
2023-03-12T12:22:43.237Z,100.00
2023-03-12T12:25:25.797Z,100.00
2023-03-12T12:28:09.023Z,100.00
2023-03-12T12:31:09.559Z,100.00
2023-03-12T12:34:01.361Z,100.00
2023-03-12T12:36:28.485Z,100.00
2023-03-12T12:39:01.596Z,100.00
2023-03-12T12:41:30.427Z,100.00
2023-03-12T12:44:02.448Z,100.00
2023-03-12T12:46:36.984Z,100.00
2023-03-12T12:49:10.136Z,100.00
2023-03-12T12:51:39.045Z,100.00
2023-03-12T12:54:41.021Z,100.00
2023-03-12T12:57:29.566Z,100.00
2023-03-12T13:00:06.351Z,100.00
2023-03-12T13:02:34.047Z,100.00
2023-03-12T13:05:01.093Z,100.00
2023-03-12T13:07:28.184Z,100.00
2023-03-12T13:09:56.061Z,100.00
2023-03-12T13:12:25.371Z,100.00
2023-03-12T13:14:52.732Z,100.00
2023-03-12T13:17:23.216Z,100.00
2023-03-12T13:19:55.545Z,100.00
2023-03-12T13:22:37.562Z,100.00
2023-03-12T13:25:19.904Z,100.00
2023-03-12T13:27:46.384Z,100.00
2023-03-12T13:30:45.573Z,100.00
2023-03-12T13:33:14.857Z,100.00
2023-03-12T13:35:41.380Z,100.00
2023-03-12T13:38:12.505Z,100.00
2023-03-12T13:40:53.420Z,100.00
2023-03-12T13:43:38.026Z,100.00
2023-03-12T13:46:16.667Z,100.00
2023-03-12T13:48:46.924Z,100.00
2023-03-12T13:51:17.364Z,100.00
2023-03-12T13:53:47.014Z,100.00
2023-03-12T13:56:14.657Z,100.00
2023-03-12T13:58:48.188Z,100.00
2023-03-12T14:01:17.571Z,100.00
2023-03-12T14:03:48.035Z,100.00
2023-03-12T14:06:14.987Z,100.00
2023-03-12T14:08:51.042Z,100.00
2023-03-12T14:11:44.970Z,100.00
2023-03-12T14:14:38.458Z,100.00
2023-03-12T14:17:05.931Z,100.00
2023-03-12T14:19:35.687Z,100.00
2023-03-12T14:22:04.575Z,100.00
2023-03-12T14:24:35.741Z,100.00
2023-03-12T14:27:02.853Z,100.00
2023-03-12T14:29:36.820Z,100.00
2023-03-12T14:32:11.104Z,100.00
2023-03-12T14:34:42.575Z,100.00
2023-03-12T14:37:20.405Z,100.00
2023-03-12T14:39:55.768Z,100.00
2023-03-12T14:42:26.095Z,100.00
2023-03-12T14:45:12.143Z,100.00
2023-03-12T14:47:46.021Z,100.00
2023-03-12T14:50:29.648Z,100.00
2023-03-12T14:53:12.080Z,100.00
2023-03-12T14:55:38.582Z,100.00
2023-03-12T14:58:06.141Z,100.00
2023-03-12T15:00:32.656Z,100.00
2023-03-12T15:02:59.820Z,100.00
2023-03-12T15:05:26.780Z,100.00
2023-03-12T15:07:55.880Z,100.00
2023-03-12T15:10:24.188Z,100.00
2023-03-12T15:12:51.578Z,100.00
2023-03-12T15:15:41.612Z,100.00
2023-03-12T15:18:16.165Z,100.00
2023-03-12T15:20:42.746Z,100.00
2023-03-12T15:23:10.182Z,100.00
2023-03-12T15:25:36.722Z,100.00
2023-03-12T15:28:07.204Z,100.00
2023-03-12T15:30:34.472Z,100.00
2023-03-12T15:33:13.992Z,100.00
2023-03-12T15:36:01.750Z,100.00
2023-03-12T15:38:28.553Z,100.00
2023-03-12T15:40:56.175Z,100.00
2023-03-12T15:43:23.586Z,100.00
2023-03-12T15:46:00.290Z,100.00
2023-03-12T15:48:29.075Z,100.00
2023-03-12T15:50:55.544Z,100.00
2023-03-12T15:53:23.061Z,100.00
2023-03-12T15:56:02.694Z,100.00
2023-03-12T15:58:34.214Z,100.00
2023-03-12T16:01:08.890Z,100.00
2023-03-12T16:03:35.481Z,100.00
2023-03-12T16:06:02.061Z,100.00
2023-03-12T16:08:44.143Z,100.00
2023-03-12T16:11:16.683Z,100.00
2023-03-12T16:13:43.283Z,100.00
2023-03-12T16:16:12.882Z,100.00
2023-03-12T16:18:39.789Z,100.00
2023-03-12T16:21:06.328Z,100.00
2023-03-12T16:23:32.917Z,100.00
2023-03-12T16:25:59.724Z,100.00
2023-03-12T16:28:26.326Z,100.00
2023-03-12T16:30:52.911Z,100.00
2023-03-12T16:33:20.868Z,100.00
2023-03-12T16:35:47.378Z,100.00
2023-03-12T16:38:14.246Z,100.00
2023-03-12T16:40:43.620Z,100.00
2023-03-12T16:43:16.001Z,100.00
2023-03-12T16:45:43.842Z,100.00
2023-03-12T16:48:13.122Z,100.00
2023-03-12T16:50:39.840Z,100.00
2023-03-12T16:53:06.613Z,100.00
2023-03-12T16:55:53.102Z,100.00
2023-03-12T16:58:20.674Z,100.00
2023-03-12T17:00:47.305Z,100.00
2023-03-12T17:03:36.146Z,100.00
2023-03-12T17:06:03.351Z,100.00
2023-03-12T17:08:29.833Z,100.00
2023-03-12T17:10:56.580Z,100.00
2023-03-12T17:13:27.392Z,100.00
2023-03-12T17:15:53.936Z,100.00
2023-03-12T17:18:20.683Z,100.00
2023-03-12T17:20:48.059Z,100.00
2023-03-12T17:23:14.515Z,100.00
2023-03-12T17:25:42.621Z,100.00
2023-03-12T17:28:09.152Z,100.00
2023-03-12T17:30:35.856Z,100.00
2023-03-12T17:33:10.713Z,100.00
2023-03-12T17:35:37.221Z,100.00
2023-03-12T17:38:03.808Z,100.00
2023-03-12T17:40:30.270Z,100.00
2023-03-12T17:42:56.790Z,100.00
2023-03-12T17:45:23.490Z,100.00
2023-03-12T17:47:49.974Z,100.00
2023-03-12T17:50:17.220Z,100.00
2023-03-12T17:52:43.691Z,100.00
2023-03-12T17:55:11.736Z,100.00
2023-03-12T17:57:38.571Z,100.00
2023-03-12T18:00:11.744Z,100.00
2023-03-12T18:02:39.257Z,100.00
2023-03-12T18:05:06.550Z,100.00
2023-03-12T18:07:33.105Z,100.00
2023-03-12T18:09:59.563Z,100.00
2023-03-12T18:12:26.196Z,100.00
2023-03-12T18:14:52.727Z,100.00
2023-03-12T18:17:19.200Z,100.00
2023-03-12T18:19:45.669Z,100.00
2023-03-12T18:22:14.457Z,100.00
2023-03-12T18:24:41.692Z,100.00
2023-03-12T18:27:08.311Z,100.00
2023-03-12T18:29:36.779Z,100.00
2023-03-12T18:32:03.663Z,100.00
2023-03-12T18:34:30.192Z,100.00
2023-03-12T18:36:56.651Z,100.00
2023-03-12T18:39:23.173Z,100.00
2023-03-12T18:41:49.629Z,100.00
2023-03-12T18:44:16.094Z,100.00
2023-03-12T18:46:42.626Z,100.00
2023-03-12T18:49:09.278Z,100.00
2023-03-12T18:51:35.978Z,100.00
2023-03-12T18:54:02.714Z,100.00
2023-03-12T18:56:32.724Z,100.00
2023-03-12T18:58:59.237Z,100.00
2023-03-12T19:01:26.227Z,100.00
2023-03-12T19:03:52.761Z,100.00
2023-03-12T19:06:19.264Z,100.00
2023-03-12T19:08:45.763Z,100.00
2023-03-12T19:11:13.560Z,100.00
2023-03-12T19:13:40.164Z,100.00
2023-03-12T19:16:10.465Z,100.00
2023-03-12T19:18:37.442Z,100.00
2023-03-12T19:21:04.623Z,100.00
2023-03-12T19:23:31.085Z,100.00
2023-03-12T19:25:57.575Z,100.00
2023-03-12T19:28:24.076Z,100.00
2023-03-12T19:30:50.992Z,100.00
2023-03-12T19:33:17.556Z,100.00
2023-03-12T19:35:44.076Z,100.00
2023-03-12T19:38:10.532Z,100.00
2023-03-12T19:40:37.005Z,100.00
2023-03-12T19:43:03.539Z,100.00
2023-03-12T19:45:30.058Z,100.00
2023-03-12T19:47:56.564Z,100.00
2023-03-12T19:50:23.813Z,100.00
2023-03-12T19:52:50.304Z,100.00
2023-03-12T19:55:16.776Z,100.00
2023-03-12T19:57:43.256Z,100.00
2023-03-12T20:00:12.058Z,100.00
2023-03-12T20:02:38.969Z,100.00
2023-03-12T20:05:06.069Z,100.00
2023-03-12T20:07:32.587Z,100.00
2023-03-12T20:09:59.172Z,100.00
2023-03-12T20:12:26.024Z,100.00
2023-03-12T20:14:52.501Z,100.00
2023-03-12T20:17:18.983Z,100.00
2023-03-12T20:19:45.473Z,100.00
2023-03-12T20:22:11.967Z,100.00
2023-03-12T20:24:38.442Z,100.00
2023-03-12T20:27:04.916Z,100.00
2023-03-12T20:29:31.380Z,100.00
2023-03-12T20:31:57.969Z,100.00
2023-03-12T20:34:24.472Z,100.00
2023-03-12T20:36:50.965Z,100.00
2023-03-12T20:39:17.478Z,100.00
2023-03-12T20:41:43.956Z,100.00
2023-03-12T20:44:10.801Z,100.00
2023-03-12T20:46:37.296Z,100.00
2023-03-12T20:49:03.801Z,100.00
2023-03-12T20:51:30.271Z,100.00
2023-03-12T20:53:57.263Z,100.00
2023-03-12T20:56:23.788Z,100.00
2023-03-12T20:58:50.270Z,100.00
2023-03-12T21:01:16.774Z,100.00
2023-03-12T21:03:43.526Z,100.00
2023-03-12T21:06:10.009Z,100.00
2023-03-12T21:08:36.470Z,100.00
2023-03-12T21:11:06.788Z,100.00
2023-03-12T21:13:33.273Z,100.00
2023-03-12T21:15:59.789Z,100.00
2023-03-12T21:18:26.282Z,100.00
2023-03-12T21:20:52.935Z,100.00
2023-03-12T21:23:19.486Z,100.00
2023-03-12T21:25:46.123Z,100.00
2023-03-12T21:28:12.815Z,100.00
2023-03-12T21:30:39.332Z,100.00
2023-03-12T21:33:07.203Z,100.00
2023-03-12T21:35:33.751Z,100.00
2023-03-12T21:38:00.638Z,100.00
2023-03-12T21:40:27.183Z,100.00
2023-03-12T21:42:53.641Z,100.00
2023-03-12T21:45:20.506Z,100.00
2023-03-12T21:47:46.969Z,100.00
2023-03-12T21:50:13.450Z,100.00
2023-03-12T21:52:43.278Z,100.00
2023-03-12T21:55:10.089Z,100.00
2023-03-12T21:57:36.778Z,100.00
2023-03-12T22:00:04.255Z,100.00
2023-03-12T22:02:31.584Z,100.00
2023-03-12T22:05:01.199Z,100.00
2023-03-12T22:07:30.924Z,100.00
2023-03-12T22:09:57.388Z,100.00
2023-03-12T22:12:23.925Z,100.00
2023-03-12T22:14:50.404Z,100.00
2023-03-12T22:17:17.254Z,100.00
2023-03-12T22:19:43.980Z,100.00
2023-03-12T22:22:10.978Z,100.00
2023-03-12T22:24:37.562Z,100.00
2023-03-12T22:27:10.084Z,100.00
2023-03-12T22:29:37.336Z,100.00
2023-03-12T22:32:04.004Z,100.00
2023-03-12T22:34:30.517Z,100.00
2023-03-12T22:36:57.282Z,100.00
2023-03-12T22:39:23.824Z,100.00
2023-03-12T22:41:53.585Z,100.00
2023-03-12T22:44:20.125Z,100.00
2023-03-12T22:46:46.657Z,100.00
2023-03-12T22:49:13.142Z,100.00
2023-03-12T22:51:39.668Z,100.00
2023-03-12T22:54:06.146Z,100.00
2023-03-12T22:56:32.668Z,100.00
2023-03-12T22:58:59.226Z,100.00
2023-03-12T23:01:26.039Z,100.00
2023-03-12T23:03:52.581Z,100.00
2023-03-12T23:06:21.410Z,100.00
2023-03-12T23:08:48.170Z,100.00
2023-03-12T23:11:14.968Z,100.00
2023-03-12T23:13:42.374Z,100.00
2023-03-12T23:16:10.295Z,100.00
2023-03-12T23:18:36.842Z,100.00
2023-03-12T23:21:08.536Z,100.00
2023-03-12T23:23:35.457Z,100.00
2023-03-12T23:26:02.980Z,100.00
2023-03-12T23:28:29.694Z,100.00
2023-03-12T23:30:57.229Z,100.00
2023-03-12T23:33:24.245Z,100.00
2023-03-12T23:35:58.689Z,100.00
2023-03-12T23:38:25.810Z,100.00
2023-03-12T23:40:52.417Z,100.00
2023-03-12T23:43:18.902Z,100.00
2023-03-12T23:45:45.489Z,100.00
2023-03-12T23:48:12.296Z,100.00
2023-03-12T23:50:38.801Z,100.00
2023-03-12T23:53:05.287Z,100.00
2023-03-12T23:55:31.851Z,100.00
2023-03-12T23:57:58.605Z,100.00
